Time;durP1;ratioP1;P1;durP2;ratioP2;P2;SDS_P1;SDS_P2;PMS_P1;PMS_P2;Temp;Humidity;BMP_temperature;BMP_pressure;BME280_temperature;BME280_humidity;BME280_pressure;Samples;Min_cycle;Max_cycle;Signal;HPM_P1;HPM_P2
2020/12/28 00:00:24;;;;;;;1.70;1.48;;;15.90;59.30;;;;;;5071834;28;20036;-56
2020/12/28 00:02:49;;;;;;;2.65;1.50;;;15.80;68.40;;;;;;5914422;22;20007;-54
2020/12/28 00:05:15;;;;;;;3.88;1.70;;;15.50;59.10;;;;;;5013128;28;20063;-57
2020/12/28 00:07:41;;;;;;;1.95;1.50;;;15.80;59.30;;;;;;5032496;28;20100;-57
2020/12/28 00:10:11;;;;;;;1.98;1.77;;;15.80;59.30;;;;;;5014718;28;20030;-57
2020/12/28 00:12:46;;;;;;;;;;;15.80;59.30;;;;;;5032819;28;20033;-57
2020/12/28 00:15:21;;;;;;;1.98;1.48;;;15.80;59.40;;;;;;5014506;28;19905;-56
2020/12/28 00:17:50;;;;;;;2.42;1.58;;;15.80;59.50;;;;;;5032299;28;20037;-57
2020/12/28 00:20:16;;;;;;;1.80;1.40;;;15.80;59.40;;;;;;5032091;28;20467;-57
2020/12/28 00:22:42;;;;;;;2.05;1.35;;;15.70;59.40;;;;;;5014555;28;20028;-56
2020/12/28 00:25:07;;;;;;;1.75;1.55;;;15.70;59.40;;;;;;5032197;28;20030;-57
2020/12/28 00:27:33;;;;;;;1.70;1.48;;;15.70;59.40;;;;;;5032046;28;20026;-57
2020/12/28 00:29:59;;;;;;;1.60;1.50;;;15.70;59.40;;;;;;5014384;28;20099;-56
2020/12/28 00:32:24;;;;;;;1.75;1.65;;;15.70;59.40;;;;;;5014398;28;20037;-57
2020/12/28 00:34:50;;;;;;;1.55;1.45;;;15.70;59.50;;;;;;5014308;28;20039;-56
2020/12/28 00:37:15;;;;;;;1.70;1.60;;;15.70;59.50;;;;;;5032234;28;20026;-57
2020/12/28 00:39:41;;;;;;;1.73;1.52;;;15.60;59.50;;;;;;5031994;28;20037;-57
2020/12/28 00:42:07;;;;;;;2.72;1.60;;;15.60;59.50;;;;;;5032127;28;20024;-57
2020/12/28 00:44:32;;;;;;;2.58;1.48;;;15.60;59.50;;;;;;5032272;28;20056;-56
2020/12/28 00:46:58;;;;;;;2.55;1.52;;;15.60;59.50;;;;;;5032088;28;20471;-56
2020/12/28 00:49:23;;;;;;;1.92;1.60;;;15.60;59.60;;;;;;5031982;28;20021;-57
2020/12/28 00:51:49;;;;;;;2.80;2.00;;;15.60;59.60;;;;;;5014210;28;20529;-56
2020/12/28 00:54:14;;;;;;;2.22;1.60;;;15.50;59.60;;;;;;5014248;28;20479;-57
2020/12/28 00:56:40;;;;;;;1.88;1.70;;;15.60;59.60;;;;;;5031913;28;20516;-57
2020/12/28 00:59:05;;;;;;;2.20;1.40;;;15.50;59.60;;;;;;5014074;28;20037;-56
2020/12/28 01:01:31;;;;;;;3.28;1.40;;;15.50;59.60;;;;;;5031813;28;20021;-56
2020/12/28 01:03:57;;;;;;;2.08;1.33;;;15.50;59.70;;;;;;5033361;28;20077;-57
2020/12/28 01:06:28;;;;;;;1.98;1.38;;;15.60;59.70;;;;;;5014120;28;20502;-56
2020/12/28 01:09:03;;;;;;;3.28;1.50;;;15.50;59.70;;;;;;5014085;28;20036;-57
2020/12/28 01:11:29;;;;;;;2.28;1.42;;;15.50;59.70;;;;;;5032796;28;20111;-56
2020/12/28 01:13:55;;;;;;;1.50;1.40;;;15.50;59.70;;;;;;5035726;28;20539;-56
2020/12/28 01:16:21;;;;;;;1.38;1.27;;;15.40;59.60;;;;;;5035714;28;20034;-57
2020/12/28 01:18:47;;;;;;;1.80;1.70;;;15.40;59.70;;;;;;5035687;28;20030;-57
2020/12/28 01:21:21;;;;;;;2.25;1.60;;;15.50;60.40;;;;;;5035528;28;20045;-56
2020/12/28 01:23:47;;;;;;;2.15;1.80;;;15.40;59.70;;;;;;5035409;28;20029;-57
2020/12/28 01:26:14;;;;;;;1.73;1.55;;;15.40;59.70;;;;;;5035467;28;20048;-55
2020/12/28 01:28:40;;;;;;;3.83;1.75;;;15.40;59.80;;;;;;5035593;28;20025;-56
2020/12/28 01:31:05;;;;;;;2.08;1.60;;;15.40;59.80;;;;;;5035453;28;20026;-57
2020/12/28 01:33:31;;;;;;;2.13;1.58;;;15.40;59.90;;;;;;5017613;28;20026;-57
2020/12/28 01:35:57;;;;;;;2.17;1.40;;;15.30;59.80;;;;;;5035399;28;20045;-56
2020/12/28 01:38:22;;;;;;;2.50;1.35;;;15.40;59.80;;;;;;5035351;28;20025;-57
2020/12/28 01:40:48;;;;;;;2.10;1.63;;;15.40;59.80;;;;;;5035234;28;20040;-57
2020/12/28 01:43:13;;;;;;;1.85;1.35;;;15.30;59.80;;;;;;5035162;28;20018;-57
2020/12/28 01:45:39;;;;;;;1.60;1.50;;;15.30;59.80;;;;;;5035129;28;20038;-57
2020/12/28 01:48:05;;;;;;;1.60;1.50;;;15.30;59.90;;;;;;5017135;28;20060;-57
2020/12/28 01:50:31;;;;;;;1.75;1.50;;;15.30;59.90;;;;;;5034903;28;20029;-56
2020/12/28 01:52:56;;;;;;;1.70;1.55;;;15.30;59.90;;;;;;5017045;28;20108;-56
2020/12/28 01:55:22;;;;;;;1.40;1.30;;;15.30;59.90;;;;;;5034992;28;20048;-56
2020/12/28 01:57:48;;;;;;;1.70;1.45;;;15.30;59.90;;;;;;5035067;28;20121;-56
2020/12/28 02:00:13;;;;;;;1.90;1.70;;;15.20;59.90;;;;;;5034923;28;20033;-57
2020/12/28 02:02:40;;;;;;;1.92;1.60;;;15.20;59.90;;;;;;5035029;28;20490;-55
2020/12/28 02:05:05;;;;;;;1.33;1.23;;;15.20;59.80;;;;;;5036546;28;20049;-55
2020/12/28 02:07:37;;;;;;;1.75;1.48;;;15.20;59.90;;;;;;5034784;28;20113;-57
2020/12/28 02:10:07;;;;;;;4.40;1.90;;;15.20;59.90;;;;;;5034805;28;20135;-54
2020/12/28 02:12:34;;;;;;;1.40;1.30;;;15.30;60.00;;;;;;5034749;28;20030;-55
2020/12/28 02:15:00;;;;;;;2.13;1.58;;;15.10;59.90;;;;;;5034652;28;20037;-57
2020/12/28 02:17:26;;;;;;;1.50;1.40;;;15.10;59.90;;;;;;5034898;28;20055;-58
2020/12/28 02:19:51;;;;;;;1.50;1.15;;;15.20;60.00;;;;;;5016537;28;20029;-57
2020/12/28 02:22:17;;;;;;;2.83;1.95;;;15.20;60.00;;;;;;5034452;28;20156;-57
2020/12/28 02:24:43;;;;;;;1.98;1.77;;;15.10;59.90;;;;;;5033724;28;20025;-57
2020/12/28 02:27:08;;;;;;;2.22;1.85;;;15.10;60.00;;;;;;5034538;28;20033;-57
2020/12/28 02:29:34;;;;;;;1.23;1.10;;;15.10;60.00;;;;;;5016312;28;20029;-57
2020/12/28 02:32:00;;;;;;;1.65;1.30;;;15.10;60.00;;;;;;5016323;28;20026;-56
2020/12/28 02:34:26;;;;;;;2.22;1.50;;;15.10;60.00;;;;;;5033040;28;20072;-57
2020/12/28 02:36:52;;;;;;;2.60;1.75;;;15.10;60.00;;;;;;5034299;28;20025;-57
2020/12/28 02:39:17;;;;;;;2.50;1.50;;;15.10;60.00;;;;;;5034071;28;20102;-57
2020/12/28 02:41:43;;;;;;;2.85;1.88;;;15.10;60.00;;;;;;5032864;28;20057;-57
2020/12/28 02:44:15;;;;;;;1.67;1.42;;;15.00;60.00;;;;;;5034037;28;20033;-57
2020/12/28 02:46:47;;;;;;;1.70;1.58;;;15.00;60.00;;;;;;5033852;28;20033;-57
2020/12/28 02:49:13;;;;;;;1.20;1.10;;;15.00;60.00;;;;;;5033784;28;20403;-57
2020/12/28 02:51:38;;;;;;;1.58;1.48;;;15.00;60.00;;;;;;4999657;28;20020;-55
2020/12/28 02:54:04;;;;;;;2.13;1.70;;;15.00;60.00;;;;;;5016078;28;20048;-56
2020/12/28 02:56:29;;;;;;;2.78;1.50;;;15.00;60.00;;;;;;5033931;28;20086;-58
2020/12/28 02:58:55;;;;;;;2.20;1.83;;;15.00;60.00;;;;;;5033660;28;20033;-57
2020/12/28 03:01:20;;;;;;;1.80;1.70;;;15.00;60.10;;;;;;5033675;28;20029;-57
2020/12/28 03:03:46;;;;;;;1.95;1.80;;;14.90;60.00;;;;;;5035491;28;20042;-57
2020/12/28 03:06:11;;;;;;;1.88;1.60;;;14.90;60.10;;;;;;5033723;28;20094;-58
2020/12/28 03:08:37;;;;;;;2.25;1.83;;;14.90;60.80;;;;;;5033461;28;20110;-57
2020/12/28 03:11:03;;;;;;;3.15;1.92;;;14.90;60.10;;;;;;5015926;28;20542;-57
2020/12/28 03:13:28;;;;;;;2.10;1.65;;;14.90;60.10;;;;;;5015813;28;20029;-56
2020/12/28 03:15:54;;;;;;;3.70;1.45;;;14.90;60.10;;;;;;5033544;28;20030;-59
2020/12/28 03:18:19;;;;;;;2.90;1.40;;;14.90;60.30;;;;;;5033477;28;20087;-57
2020/12/28 03:20:45;;;;;;;1.83;1.73;;;14.90;60.30;;;;;;5033535;28;20088;-56
2020/12/28 03:23:10;;;;;;;2.47;1.50;;;14.90;60.00;;;;;;5015699;28;20021;-55
2020/12/28 03:25:36;;;;;;;2.35;1.70;;;15.00;60.50;;;;;;5033421;28;20487;-56
2020/12/28 03:28:02;;;;;;;2.42;1.63;;;15.00;61.40;;;;;;5033402;28;20052;-57
2020/12/28 03:30:27;;;;;;;2.20;1.73;;;15.10;60.70;;;;;;5015507;28;20035;-56
2020/12/28 03:32:53;;;;;;;3.42;1.60;;;15.10;60.60;;;;;;5033289;28;20026;-57
2020/12/28 03:35:18;;;;;;;2.35;1.73;;;15.10;60.80;;;;;;5033185;28;20079;-56
2020/12/28 03:37:44;;;;;;;2.03;1.80;;;15.10;60.80;;;;;;5033144;28;20053;-57
2020/12/28 03:40:10;;;;;;;2.45;1.52;;;15.20;60.90;;;;;;5032949;28;20391;-56
2020/12/28 03:42:35;;;;;;;2.60;2.15;;;15.20;60.80;;;;;;5033042;28;20057;-57
2020/12/28 03:45:01;;;;;;;2.85;1.98;;;15.10;60.70;;;;;;5032865;28;20429;-57
2020/12/28 03:47:26;;;;;;;1.98;1.73;;;15.20;60.80;;;;;;5032959;28;20056;-57
2020/12/28 03:49:52;;;;;;;2.03;1.80;;;15.20;60.70;;;;;;5032837;28;20379;-57
2020/12/28 03:52:18;;;;;;;2.35;1.98;;;15.10;60.70;;;;;;5032897;28;20084;-56
2020/12/28 03:54:46;;;;;;;2.00;1.80;;;15.10;60.70;;;;;;5032650;28;20021;-56
2020/12/28 03:57:11;;;;;;;2.63;2.10;;;15.10;60.80;;;;;;5032698;28;20128;-57
2020/12/28 03:59:39;;;;;;;2.95;2.00;;;15.10;60.70;;;;;;5032658;28;20403;-57
2020/12/28 04:02:04;;;;;;;3.33;2.95;;;15.10;60.70;;;;;;5032442;28;20526;-57
2020/12/28 04:04:30;;;;;;;3.17;2.28;;;15.10;60.70;;;;;;5034361;28;20192;-57
2020/12/28 04:06:55;;;;;;;3.28;2.70;;;15.00;60.80;;;;;;5014533;28;20599;-57
2020/12/28 04:09:21;;;;;;;2.50;2.30;;;15.00;60.60;;;;;;5032370;28;20038;-57
2020/12/28 04:11:47;;;;;;;2.25;1.98;;;15.00;60.70;;;;;;5032332;28;20481;-57
2020/12/28 04:14:12;;;;;;;2.38;2.15;;;14.90;61.30;;;;;;5032421;28;20448;-55
2020/12/28 04:16:38;;;;;;;4.00;2.75;;;15.00;60.80;;;;;;5032188;28;20467;-58
2020/12/28 04:19:03;;;;;;;2.85;2.40;;;14.90;60.60;;;;;;5032322;28;20458;-56
2020/12/28 04:21:29;;;;;;;2.40;2.20;;;14.90;60.50;;;;;;5032185;28;20116;-57
2020/12/28 04:23:55;;;;;;;2.55;2.30;;;14.90;60.50;;;;;;5014553;28;20475;-56
2020/12/28 04:26:20;;;;;;;2.50;2.30;;;14.90;60.50;;;;;;5032032;28;20029;-57
2020/12/28 04:28:46;;;;;;;2.70;2.20;;;14.90;60.50;;;;;;5032319;28;20026;-57
2020/12/28 04:31:12;;;;;;;4.20;2.40;;;14.90;60.50;;;;;;5032125;28;20038;-57
2020/12/28 04:33:38;;;;;;;3.88;2.50;;;14.80;60.50;;;;;;5032022;28;20097;-57
2020/12/28 04:36:04;;;;;;;2.67;2.47;;;14.80;60.50;;;;;;5014354;28;20021;-57
2020/12/28 04:38:30;;;;;;;2.55;2.03;;;14.80;60.60;;;;;;5014324;28;20471;-57
2020/12/28 04:40:56;;;;;;;3.60;2.28;;;14.80;60.60;;;;;;5032050;28;20045;-56
2020/12/28 04:43:26;;;;;;;2.67;2.10;;;14.80;60.70;;;;;;5032096;28;20026;-57
2020/12/28 04:46:02;;;;;;;3.03;2.42;;;14.80;60.70;;;;;;5013710;28;20032;-56
2020/12/28 04:48:30;;;;;;;2.30;2.10;;;14.80;60.80;;;;;;5031852;28;20059;-57
2020/12/28 04:50:58;;;;;;;3.40;2.38;;;14.80;60.70;;;;;;5031632;28;20078;-57
2020/12/28 04:53:24;;;;;;;3.28;2.20;;;14.80;60.60;;;;;;5014211;28;20028;-55
2020/12/28 04:55:50;;;;;;;3.20;2.38;;;14.80;60.80;;;;;;5014102;28;20030;-56
2020/12/28 04:58:17;;;;;;;2.22;2.03;;;14.80;60.80;;;;;;5014041;28;20033;-56
2020/12/28 05:00:44;;;;;;;2.97;2.38;;;14.90;60.90;;;;;;5031787;28;20030;-57
2020/12/28 05:03:10;;;;;;;2.13;1.92;;;15.00;60.70;;;;;;5031679;28;20021;-55
2020/12/28 05:05:45;;;;;;;2.35;2.15;;;14.90;60.70;;;;;;5033471;28;20049;-57
2020/12/28 05:08:11;;;;;;;2.13;1.92;;;14.90;60.90;;;;;;5031715;28;20025;-57
2020/12/28 05:10:36;;;;;;;3.53;2.28;;;15.00;60.80;;;;;;5031673;28;20052;-55
2020/12/28 05:13:09;;;;;;;3.95;1.90;;;14.90;60.70;;;;;;5031678;28;20060;-57
2020/12/28 05:15:43;;;;;;;2.35;2.10;;;14.90;60.80;;;;;;5031557;28;20052;-56
2020/12/28 05:18:09;;;;;;;2.78;2.05;;;15.00;60.80;;;;;;5031563;28;20030;-55
2020/12/28 05:20:35;;;;;;;2.33;2.13;;;15.00;60.80;;;;;;5031621;28;20053;-57
2020/12/28 05:23:00;;;;;;;2.13;1.90;;;15.00;60.70;;;;;;5031617;28;20032;-56
2020/12/28 05:25:26;;;;;;;2.80;1.90;;;15.00;60.80;;;;;;5013949;28;20061;-57
2020/12/28 05:27:55;;;;;;;2.00;1.85;;;15.00;60.80;;;;;;5031637;28;20039;-57
2020/12/28 05:30:21;;;;;;;2.35;1.88;;;15.00;60.90;;;;;;5013952;28;20043;-56
2020/12/28 05:32:48;;;;;;;1.90;1.40;;;15.00;60.90;;;;;;5031646;28;20559;-57
2020/12/28 05:35:16;;;;;;;1.85;1.73;;;15.00;60.90;;;;;;5031579;28;20044;-57
2020/12/28 05:37:45;;;;;;;1.83;1.70;;;15.00;61.10;;;;;;5031548;28;20094;-58
2020/12/28 05:40:12;;;;;;;3.95;1.85;;;15.00;60.90;;;;;;5031507;28;20041;-60
2020/12/28 05:42:49;;;;;;;3.15;1.90;;;15.10;61.00;;;;;;5031370;28;20059;-57
2020/12/28 05:45:14;;;;;;;2.08;1.80;;;15.10;61.10;;;;;;5031574;28;20059;-57
2020/12/28 05:47:43;;;;;;;1.77;1.67;;;15.10;61.10;;;;;;5031322;28;20057;-56
2020/12/28 05:50:09;;;;;;;2.10;1.90;;;15.10;61.10;;;;;;5013538;28;20072;-56
2020/12/28 05:52:45;;;;;;;1.77;1.67;;;15.10;61.20;;;;;;5031537;28;20060;-57
2020/12/28 05:55:16;;;;;;;1.90;1.58;;;15.10;61.10;;;;;;5031584;28;20029;-55
2020/12/28 05:57:44;;;;;;;2.67;1.98;;;15.10;61.10;;;;;;5031343;28;20025;-57
2020/12/28 06:00:09;;;;;;;2.15;1.83;;;15.40;61.30;;;;;;5034568;28;20033;-57
2020/12/28 06:02:39;;;;;;;1.90;1.58;;;15.10;61.10;;;;;;5017045;28;20483;-57
2020/12/28 06:05:12;;;;;;;2.28;2.08;;;15.10;61.20;;;;;;5018771;28;20188;-56
2020/12/28 06:07:37;;;;;;;2.25;1.58;;;15.00;61.10;;;;;;5034733;28;20078;-56
2020/12/28 06:10:07;;;;;;;1.88;1.77;;;15.10;61.30;;;;;;5034643;28;20425;-57
2020/12/28 06:12:33;;;;;;;1.42;1.27;;;15.10;61.20;;;;;;5034746;28;20030;-56
2020/12/28 06:14:59;;;;;;;2.15;1.50;;;15.20;61.30;;;;;;5034702;28;20380;-57
2020/12/28 06:17:33;;;;;;;1.88;1.63;;;15.30;61.30;;;;;;5034617;28;20021;-57
2020/12/28 06:20:04;;;;;;;1.40;1.30;;;15.40;61.30;;;;;;5034305;28;20037;-57
2020/12/28 06:22:31;;;;;;;1.90;1.52;;;15.50;61.20;;;;;;5034417;28;20120;-57
2020/12/28 06:25:14;;;;;;;1.73;1.63;;;15.60;61.10;;;;;;5034391;28;20029;-57
2020/12/28 06:27:44;;;;;;;3.33;1.60;;;15.60;61.00;;;;;;5034333;28;20025;-56
2020/12/28 06:30:18;;;;;;;;;;;15.70;60.90;;;;;;5034687;28;20526;-56
2020/12/28 06:32:45;;;;;;;2.00;1.40;;;15.70;60.80;;;;;;5034284;28;19905;-57
2020/12/28 06:35:13;;;;;;;2.67;1.60;;;15.70;60.80;;;;;;5034258;28;20025;-57
2020/12/28 06:37:45;;;;;;;1.77;1.67;;;15.70;60.70;;;;;;5034296;28;20491;-57
2020/12/28 06:40:29;;;;;;;1.35;1.25;;;15.70;60.80;;;;;;5034228;28;20037;-57
2020/12/28 06:43:08;;;;;;;1.92;1.70;;;15.70;60.70;;;;;;5033995;28;20025;-57
2020/12/28 06:45:34;;;;;;;1.45;1.25;;;15.70;60.50;;;;;;5033925;28;20100;-56
2020/12/28 06:47:59;;;;;;;1.40;1.25;;;15.70;60.50;;;;;;5033761;28;20491;-56
2020/12/28 06:50:25;;;;;;;1.83;1.65;;;15.70;60.50;;;;;;5033855;28;20109;-57
2020/12/28 06:52:51;;;;;;;1.75;1.45;;;15.80;60.60;;;;;;5033793;28;20400;-57
2020/12/28 06:55:17;;;;;;;3.20;1.38;;;15.70;60.50;;;;;;5015932;28;20033;-56
2020/12/28 06:57:42;;;;;;;1.40;1.30;;;15.70;60.40;;;;;;5033971;28;20033;-57
2020/12/28 07:00:17;;;;;;;1.42;1.10;;;15.80;60.40;;;;;;5015799;28;20060;-57
2020/12/28 07:02:52;;;;;;;2.60;1.20;;;15.80;60.40;;;;;;5033811;28;20476;-57
2020/12/28 07:05:27;;;;;;;2.13;1.30;;;15.80;60.30;;;;;;5035381;28;20076;-61
2020/12/28 07:07:53;;;;;;;1.85;1.30;;;15.80;60.40;;;;;;5033802;28;20044;-56
2020/12/28 07:10:23;;;;;;;1.98;1.30;;;15.80;60.30;;;;;;5033463;28;20033;-57
2020/12/28 07:12:50;;;;;;;1.30;1.20;;;15.80;60.20;;;;;;5033730;28;20076;-57
2020/12/28 07:15:17;;;;;;;1.20;1.10;;;15.90;60.20;;;;;;5033547;28;20032;-57
2020/12/28 07:17:43;;;;;;;1.65;1.25;;;15.90;60.20;;;;;;5015752;28;20028;-57
2020/12/28 07:20:13;;;;;;;1.13;1.02;;;15.90;60.20;;;;;;5033272;28;20109;-57
2020/12/28 07:22:40;;;;;;;;;;;15.90;60.10;;;;;;5034261;28;20064;-57
2020/12/28 07:25:07;;;;;;;0.80;0.80;;;15.90;60.10;;;;;;5033481;28;19915;-57
2020/12/28 07:27:33;;;;;;;0.95;0.95;;;15.90;60.10;;;;;;5033241;28;20080;-56
2020/12/28 07:30:05;;;;;;;0.93;0.93;;;15.90;60.10;;;;;;5033349;28;20100;-56
2020/12/28 07:32:31;;;;;;;1.30;1.20;;;16.00;60.10;;;;;;5033330;28;20072;-55
2020/12/28 07:34:56;;;;;;;1.15;1.05;;;15.90;60.10;;;;;;5015480;28;20418;-57
2020/12/28 07:37:22;;;;;;;1.42;1.00;;;15.80;60.10;;;;;;5015484;28;20029;-56
2020/12/28 07:39:49;;;;;;;0.90;0.85;;;15.80;60.10;;;;;;5033110;28;20052;-55
2020/12/28 07:42:23;;;;;;;1.17;1.00;;;15.80;60.30;;;;;;5033046;28;20032;-57
2020/12/28 07:44:58;;;;;;;2.08;1.00;;;15.80;60.00;;;;;;5015177;28;20044;-57
2020/12/28 07:47:31;;;;;;;1.67;1.08;;;15.70;60.10;;;;;;5032860;28;20025;-56
2020/12/28 07:50:02;;;;;;;0.90;0.90;;;15.70;60.00;;;;;;5032627;28;20025;-57
2020/12/28 07:52:29;;;;;;;1.45;1.08;;;15.70;59.90;;;;;;5031474;28;20548;-57
2020/12/28 07:55:17;;;;;;;1.60;1.45;;;15.70;59.80;;;;;;5032782;28;20029;-57
2020/12/28 07:58:01;;;;;;;2.53;1.20;;;15.70;59.80;;;;;;5032778;28;20113;-56
2020/12/28 08:00:31;;;;;;;1.40;1.30;;;15.70;60.00;;;;;;5032692;28;20403;-57
2020/12/28 08:03:15;;;;;;;1.13;1.02;;;15.70;60.10;;;;;;5032902;28;20017;-57
2020/12/28 08:05:41;;;;;;;1.30;0.90;;;15.60;59.60;;;;;;5034412;28;20053;-57
2020/12/28 08:08:18;;;;;;;2.22;1.05;;;15.60;59.80;;;;;;5014755;28;20523;-57
2020/12/28 08:10:58;;;;;;;1.17;0.90;;;15.60;59.70;;;;;;5014775;28;20017;-57
2020/12/28 08:13:28;;;;;;;1.70;1.20;;;15.60;59.70;;;;;;5032193;28;20068;-57
2020/12/28 08:15:54;;;;;;;;;;;15.60;59.70;;;;;;5015059;28;20029;-57
2020/12/28 08:18:20;;;;;;;1.67;1.40;;;15.60;59.70;;;;;;5014641;28;19916;-57
2020/12/28 08:20:57;;;;;;;2.00;1.17;;;15.60;59.70;;;;;;5031548;28;20427;-56
2020/12/28 08:23:27;;;;;;;4.68;1.35;;;15.60;59.70;;;;;;4998396;28;20052;-56
2020/12/28 08:25:53;;;;;;;3.47;1.15;;;15.60;60.00;;;;;;5032094;28;20475;-56
2020/12/28 08:28:19;;;;;;;3.90;1.33;;;15.60;60.70;;;;;;5014444;28;20017;-55
2020/12/28 08:30:45;;;;;;;7.72;1.27;;;15.60;60.70;;;;;;5014285;28;20463;-56
2020/12/28 08:33:11;;;;;;;7.20;1.33;;;15.50;60.50;;;;;;5032120;28;20109;-51
2020/12/28 08:35:50;;;;;;;8.77;0.98;;;15.60;60.60;;;;;;5031927;28;20383;-56
2020/12/28 08:38:16;;;;;;;4.00;1.17;;;15.60;60.30;;;;;;5031921;28;20018;-56
2020/12/28 08:40:41;;;;;;;3.13;1.75;;;15.60;60.20;;;;;;5031971;28;20041;-56
2020/12/28 08:43:16;;;;;;;4.43;1.33;;;15.60;60.10;;;;;;5031936;28;20136;-55
2020/12/28 08:45:41;;;;;;;3.53;0.98;;;15.60;60.00;;;;;;5031774;28;20024;-55
2020/12/28 08:48:07;;;;;;;3.40;1.13;;;15.60;60.00;;;;;;5031857;28;20468;-56
2020/12/28 08:50:36;;;;;;;2.40;1.02;;;15.60;60.00;;;;;;5030699;28;20029;-56
2020/12/28 08:53:02;;;;;;;2.97;0.85;;;15.60;60.00;;;;;;5031931;28;20068;-56
2020/12/28 08:55:28;;;;;;;3.97;1.27;;;15.60;60.00;;;;;;5031841;28;20033;-56
2020/12/28 08:57:56;;;;;;;2.42;1.15;;;15.60;60.00;;;;;;5031541;28;20022;-54
2020/12/28 09:00:25;;;;;;;3.03;1.10;;;15.60;60.10;;;;;;5031686;28;20038;-55
2020/12/28 09:02:56;;;;;;;2.63;0.88;;;15.60;60.00;;;;;;5031750;28;20026;-55
2020/12/28 09:05:29;;;;;;;3.28;1.00;;;15.60;59.90;;;;;;5033425;28;20057;-55
2020/12/28 09:07:55;;;;;;;2.00;0.80;;;15.60;60.00;;;;;;5031667;28;20040;-55
2020/12/28 09:10:21;;;;;;;1.98;0.93;;;15.60;60.00;;;;;;5031695;28;20029;-54
2020/12/28 09:12:46;;;;;;;1.88;0.70;;;15.60;60.00;;;;;;5031557;28;20067;-53
2020/12/28 09:15:12;;;;;;;3.25;0.93;;;15.70;60.00;;;;;;5031441;28;20069;-55
2020/12/28 09:17:38;;;;;;;2.35;1.00;;;15.60;60.00;;;;;;5030630;28;20030;-56
2020/12/28 09:20:05;;;;;;;2.58;1.15;;;15.60;60.20;;;;;;5031830;28;20098;-56
2020/12/28 09:22:31;;;;;;;3.25;0.88;;;15.60;60.00;;;;;;5031516;28;20030;-52
2020/12/28 09:24:56;;;;;;;0.98;0.77;;;15.60;59.90;;;;;;5031596;28;20117;-55
2020/12/28 09:27:22;;;;;;;2.75;0.98;;;15.60;59.80;;;;;;5031594;28;20483;-56
2020/12/28 09:29:48;;;;;;;3.55;0.75;;;15.60;59.80;;;;;;5013788;28;20055;-55
2020/12/28 09:32:13;;;;;;;2.13;1.15;;;15.70;59.80;;;;;;5032004;28;20027;-56
2020/12/28 09:34:39;;;;;;;1.38;0.80;;;15.70;59.70;;;;;;5017469;28;20032;-54
2020/12/28 09:37:07;;;;;;;1.25;1.08;;;15.60;59.50;;;;;;5035027;28;20072;-56
2020/12/28 09:39:34;;;;;;;3.10;0.90;;;15.60;59.50;;;;;;5017788;28;20030;-55
2020/12/28 09:42:00;;;;;;;1.75;0.90;;;15.70;59.50;;;;;;5035170;28;20033;-55
2020/12/28 09:44:26;;;;;;;1.40;0.68;;;15.70;59.40;;;;;;5035108;28;20071;-55
2020/12/28 09:46:52;;;;;;;1.77;0.63;;;15.70;59.30;;;;;;5035268;28;20022;-55
2020/12/28 09:49:19;;;;;;;4.60;1.23;;;15.70;59.30;;;;;;5034893;28;20034;-54
2020/12/28 09:51:52;;;;;;;1.33;0.73;;;15.70;59.30;;;;;;5035131;28;20587;-55
2020/12/28 09:54:19;;;;;;;2.97;0.80;;;15.70;59.20;;;;;;5035040;28;20039;-52
2020/12/28 09:56:45;;;;;;;1.27;1.02;;;15.70;59.10;;;;;;5034916;28;20056;-55
2020/12/28 09:59:10;;;;;;;1.85;0.95;;;15.70;59.10;;;;;;5017054;28;20072;-55
2020/12/28 10:01:36;;;;;;;3.58;0.82;;;15.70;59.10;;;;;;5034576;28;20045;-52
2020/12/28 10:04:01;;;;;;;2.67;0.93;;;15.70;59.00;;;;;;5036695;28;20025;-56
2020/12/28 10:06:36;;;;;;;2.25;1.10;;;15.70;59.20;;;;;;5016713;28;20080;-55
2020/12/28 10:09:03;;;;;;;2.60;0.90;;;15.80;59.30;;;;;;5034921;28;20476;-55
2020/12/28 10:11:29;;;;;;;2.22;0.90;;;15.80;59.30;;;;;;5034722;28;20021;-55
2020/12/28 10:13:55;;;;;;;2.53;0.80;;;15.80;59.20;;;;;;5034624;28;20075;-55
2020/12/28 10:16:26;;;;;;;3.08;1.20;;;15.80;59.20;;;;;;5034763;28;20116;-55
2020/12/28 10:18:55;;;;;;;2.35;1.27;;;15.90;59.10;;;;;;5034432;28;20061;-54
2020/12/28 10:21:21;;;;;;;3.50;1.13;;;15.90;59.00;;;;;;5034663;28;20365;-56
2020/12/28 10:23:48;;;;;;;4.20;1.02;;;16.00;59.10;;;;;;5034541;28;20021;-56
2020/12/28 10:26:22;;;;;;;3.33;0.93;;;16.00;58.90;;;;;;5033141;28;20099;-56
2020/12/28 10:28:49;;;;;;;2.25;1.13;;;16.10;59.20;;;;;;5034233;28;20468;-55
2020/12/28 10:31:16;;;;;;;4.78;0.98;;;16.10;59.00;;;;;;5034706;28;20018;-56
2020/12/28 10:33:43;;;;;;;12.70;1.67;;;16.20;58.90;;;;;;5034372;28;20033;-55
2020/12/28 10:36:20;;;;;;;3.40;0.73;;;16.20;58.80;;;;;;5034330;28;20026;-56
2020/12/28 10:38:49;;;;;;;2.78;0.93;;;16.30;59.00;;;;;;5034104;28;20033;-56
2020/12/28 10:41:15;;;;;;;3.97;1.17;;;16.40;59.20;;;;;;5032682;28;20043;-55
2020/12/28 10:43:41;;;;;;;1.33;0.85;;;16.40;59.20;;;;;;5032386;28;20029;-55
2020/12/28 10:46:08;;;;;;;1.40;1.05;;;16.50;59.10;;;;;;5033832;28;20084;-56
2020/12/28 10:48:34;;;;;;;3.80;1.20;;;16.40;60.80;;;;;;5032846;28;20053;-55
2020/12/28 10:51:00;;;;;;;1.83;0.80;;;16.60;62.10;;;;;;5034033;28;20099;-56
2020/12/28 10:53:25;;;;;;;1.83;0.80;;;16.50;62.00;;;;;;5033950;28;20215;-53
2020/12/28 10:55:51;;;;;;;4.43;1.65;;;16.50;63.10;;;;;;5033901;28;20021;-56
2020/12/28 10:58:16;;;;;;;3.70;0.98;;;16.50;62.40;;;;;;5033862;28;20037;-56
2020/12/28 11:00:42;;;;;;;7.15;1.45;;;16.60;62.40;;;;;;5033831;28;20037;-56
2020/12/28 11:03:08;;;;;;;5.13;1.00;;;16.60;64.20;;;;;;5032257;28;20096;-56
2020/12/28 11:05:34;;;;;;;6.32;1.27;;;16.60;64.50;;;;;;5035267;28;20111;-55
2020/12/28 11:07:59;;;;;;;3.03;1.27;;;16.70;64.40;;;;;;5033706;28;20507;-55
2020/12/28 11:10:25;;;;;;;4.22;1.08;;;16.70;63.40;;;;;;4999452;28;20033;-56
2020/12/28 11:12:50;;;;;;;7.38;1.08;;;16.70;64.20;;;;;;5033253;28;20491;-55
2020/12/28 11:15:16;;;;;;;4.28;1.10;;;16.70;64.90;;;;;;5033462;28;20433;-56
2020/12/28 11:17:42;;;;;;;3.13;1.30;;;16.70;64.50;;;;;;5033420;28;20025;-56
2020/12/28 11:20:07;;;;;;;3.83;1.00;;;16.80;65.00;;;;;;5033397;28;20037;-57
2020/12/28 11:22:33;;;;;;;5.25;0.80;;;16.80;64.50;;;;;;5033323;28;20063;-57
2020/12/28 11:24:59;;;;;;;3.05;0.93;;;16.90;65.40;;;;;;5033492;28;20029;-57
2020/12/28 11:27:26;;;;;;;3.67;1.08;;;16.80;64.10;;;;;;5033184;28;20025;-55
2020/12/28 11:29:52;;;;;;;2.40;0.90;;;16.90;64.90;;;;;;5015441;28;20018;-56
2020/12/28 11:32:18;;;;;;;5.95;1.23;;;16.80;64.90;;;;;;5033239;28;20029;-55
2020/12/28 11:34:43;;;;;;;3.95;1.02;;;16.80;64.40;;;;;;5015449;28;20050;-56
2020/12/28 11:37:09;;;;;;;3.08;1.02;;;16.80;64.80;;;;;;5033025;28;20040;-56
2020/12/28 11:39:34;;;;;;;5.50;1.08;;;16.80;65.60;;;;;;5033034;28;20040;-60
2020/12/28 11:42:00;;;;;;;3.10;0.77;;;16.70;65.20;;;;;;5033006;28;20030;-55
2020/12/28 11:44:26;;;;;;;3.38;0.98;;;16.70;65.70;;;;;;5015311;28;20029;-55
2020/12/28 11:46:55;;;;;;;3.00;0.98;;;16.60;66.00;;;;;;5033043;28;20691;-57
2020/12/28 11:49:26;;;;;;;4.47;1.00;;;16.50;65.50;;;;;;5032823;28;20431;-57
2020/12/28 11:51:55;;;;;;;4.38;1.02;;;16.50;65.80;;;;;;5032966;28;20025;-56
2020/12/28 11:54:21;;;;;;;1.50;0.70;;;16.40;66.40;;;;;;5032574;28;20025;-56
2020/12/28 11:56:47;;;;;;;2.50;0.82;;;16.40;67.60;;;;;;5031909;28;20483;-56
2020/12/28 11:59:13;;;;;;;3.05;0.80;;;16.40;67.90;;;;;;5032767;28;20055;-57
2020/12/28 12:01:38;;;;;;;2.83;0.85;;;16.30;67.80;;;;;;5032599;28;20486;-56
2020/12/28 12:04:04;;;;;;;2.33;0.90;;;16.40;67.60;;;;;;5032971;28;20048;-57
2020/12/28 12:06:30;;;;;;;2.50;0.98;;;16.30;67.90;;;;;;5034214;28;20049;-57
2020/12/28 12:09:14;;;;;;;5.75;0.88;;;16.30;68.00;;;;;;5032548;28;20032;-57
2020/12/28 12:11:47;;;;;;;3.90;0.75;;;16.30;68.10;;;;;;5014693;28;20120;-56
2020/12/28 12:14:14;;;;;;;2.55;0.70;;;16.30;68.00;;;;;;5032176;28;20025;-56
2020/12/28 12:16:40;;;;;;;1.95;1.00;;;16.30;68.10;;;;;;5032124;28;20644;-56
2020/12/28 12:19:06;;;;;;;4.65;0.80;;;16.30;68.10;;;;;;5032098;28;20033;-56
2020/12/28 12:21:32;;;;;;;4.60;0.85;;;16.30;68.10;;;;;;5031953;28;20056;-56
2020/12/28 12:23:58;;;;;;;3.55;0.82;;;16.20;66.80;;;;;;5032194;28;20471;-56
2020/12/28 12:26:25;;;;;;;1.92;1.05;;;16.20;68.00;;;;;;5032277;28;20037;-56
2020/12/28 12:28:52;;;;;;;3.75;1.10;;;16.20;68.00;;;;;;5014174;28;20380;-56
2020/12/28 12:31:18;;;;;;;2.67;0.93;;;16.20;68.30;;;;;;5014353;28;20545;-54
2020/12/28 12:33:44;;;;;;;2.47;1.00;;;16.20;68.30;;;;;;5032104;28;20025;-57
2020/12/28 12:36:10;;;;;;;3.50;0.88;;;16.20;68.00;;;;;;5014393;28;20064;-57
2020/12/28 12:38:36;;;;;;;1.35;0.73;;;16.20;68.50;;;;;;5031930;28;20488;-57
2020/12/28 12:41:02;;;;;;;3.25;0.80;;;16.10;68.50;;;;;;5031930;28;20040;-56
2020/12/28 12:43:28;;;;;;;2.80;1.35;;;16.10;68.50;;;;;;5031867;28;20045;-57
2020/12/28 12:45:54;;;;;;;3.40;0.82;;;16.10;68.20;;;;;;5014425;28;20068;-57
2020/12/28 12:48:20;;;;;;;1.00;0.60;;;16.10;68.10;;;;;;5031910;28;20044;-56